Time;durP1;ratioP1;P1;durP2;ratioP2;P2;SDS_P1;SDS_P2;PMS_P1;PMS_P2;Temp;Humidity;BMP_temperature;BMP_pressure;BME280_temperature;BME280_humidity;BME280_pressure;Samples;Min_cycle;Max_cycle;Signal;HPM_P1;HPM_P2
2022/07/16 00:01:23;;;;;;;8.80;6.07;;;;;;;22.82;43.95;93688.41;4973207;28;20042;-91
2022/07/16 00:04:01;;;;;;;9.48;6.15;;;;;;;22.81;43.60;93687.66;5006088;28;20411;-93
2022/07/16 00:06:28;;;;;;;9.15;6.03;;;;;;;22.82;43.92;93688.41;4977716;28;20038;-94
2022/07/16 00:08:53;;;;;;;11.85;5.80;;;;;;;22.82;43.65;93683.63;4990982;28;20042;-92
2022/07/16 00:11:19;;;;;;;7.57;5.57;;;;;;;22.81;43.50;93690.41;4976756;28;20038;-94
2022/07/16 00:13:44;;;;;;;8.43;5.75;;;;;;;22.79;43.73;93681.94;4976870;28;20496;-94
2022/07/16 00:16:10;;;;;;;9.20;5.88;;;;;;;22.78;43.89;93685.22;4992308;28;20119;-92
2022/07/16 00:21:20;;;;;;;7.70;5.07;;;;;;;22.78;43.58;93683.22;5001255;28;20087;-94
2022/07/16 00:23:45;;;;;;;9.43;5.65;;;;;;;22.78;43.76;93680.44;4955966;28;20043;-94
2022/07/16 00:26:11;;;;;;;7.15;6.13;;;;;;;22.78;43.86;93663.91;4939836;28;20038;-94
2022/07/16 00:28:36;;;;;;;7.78;6.30;;;;;;;22.78;43.70;93674.19;4955284;28;20038;-93
2022/07/16 00:31:02;;;;;;;7.22;5.28;;;;;;;22.77;43.93;93678.19;4940028;28;20027;-93
2022/07/16 00:33:27;;;;;;;7.90;5.25;;;;;;;22.77;44.14;93669.94;4939395;28;20104;-94
2022/07/16 00:35:53;;;;;;;7.28;5.10;;;;;;;22.78;43.94;93671.44;4955696;28;20517;-93
2022/07/16 00:38:18;;;;;;;7.35;5.32;;;;;;;22.78;44.13;93666.66;4939087;28;20604;-93
2022/07/16 00:40:43;;;;;;;6.32;5.07;;;;;;;22.78;44.03;93660.41;4939297;28;20512;-94
2022/07/16 00:43:11;;;;;;;7.68;5.10;;;;;;;22.76;44.02;93662.94;4939197;28;20492;-94
2022/07/16 00:45:37;;;;;;;6.88;4.93;;;;;;;22.77;43.87;93658.91;4939997;28;20038;-94
2022/07/16 00:48:02;;;;;;;8.68;5.00;;;;;;;22.76;44.18;93669.19;4939171;28;20222;-91
2022/07/16 00:50:28;;;;;;;8.38;5.25;;;;;;;22.77;43.92;93664.41;4938577;28;20854;-91
2022/07/16 00:52:53;;;;;;;7.15;4.95;;;;;;;22.76;43.82;93663.69;4971087;28;20034;-93
2022/07/16 00:55:19;;;;;;;8.23;4.75;;;;;;;22.76;44.20;93658.16;4950703;28;20058;-93
2022/07/16 00:57:44;;;;;;;7.88;4.80;;;;;;;22.77;44.01;93661.66;4972803;28;20333;-92
2022/07/16 01:00:10;;;;;;;5.90;4.82;;;;;;;22.75;44.04;93659.44;4988166;28;20038;-93
2022/07/16 01:02:36;;;;;;;7.72;4.90;;;;;;;22.76;43.37;93660.91;4972166;28;20100;-94
2022/07/16 01:05:01;;;;;;;6.80;4.82;;;;;;;22.76;44.12;93658.16;4988463;28;20441;-94
2022/07/16 01:07:27;;;;;;;7.22;4.53;;;;;;;22.73;44.08;93656.50;4971672;28;20552;-92
2022/07/16 01:09:52;;;;;;;7.40;4.32;;;;;;;22.72;44.16;93655.00;4984540;28;20488;-94
2022/07/16 01:12:18;;;;;;;7.05;4.32;;;;;;;22.74;44.08;93662.72;4955570;28;20042;-94
2022/07/16 01:14:44;;;;;;;7.72;4.30;;;;;;;22.72;44.09;93660.53;4975053;28;20034;-92
2022/07/16 01:17:09;;;;;;;7.28;4.85;;;;;;;22.75;44.02;93664.22;4971711;28;20528;-93
2022/07/16 01:19:34;;;;;;;5.50;4.72;;;;;;;22.73;44.12;93653.75;4994748;28;20410;-93
2022/07/16 01:22:00;;;;;;;5.35;4.32;;;;;;;22.72;44.37;93660.53;4995807;28;20403;-94
2022/07/16 01:24:25;;;;;;;7.32;4.30;;;;;;;22.73;43.76;93655.75;5009721;28;20391;-95
2022/07/16 01:26:51;;;;;;;4.95;4.10;;;;;;;22.73;44.24;93658.50;4978951;28;20022;-93
2022/07/16 01:29:16;;;;;;;5.75;3.97;;;;;;;22.73;43.97;93647.50;4977658;28;20402;-92
2022/07/16 01:31:42;;;;;;;6.70;4.75;;;;;;;22.71;44.09;93650.78;4995209;28;20041;-92
2022/07/16 01:34:25;;;;;;;6.50;4.68;;;;;;;22.72;43.95;93648.75;4988067;28;20038;-94
2022/07/16 01:36:53;;;;;;;5.40;4.25;;;;;;;22.71;44.33;93645.25;4958594;28;20042;-94
2022/07/16 01:39:18;;;;;;;5.60;4.30;;;;;;;22.71;43.73;93645.25;4971256;28;20065;-94
2022/07/16 01:41:52;;;;;;;6.10;4.80;;;;;;;22.69;44.00;93649.81;4971919;28;20034;-91
2022/07/16 01:44:18;;;;;;;5.53;4.00;;;;;;;22.71;44.03;93647.28;4987227;28;20031;-93
2022/07/16 01:46:43;;;;;;;5.45;4.43;;;;;;;22.69;44.04;93644.31;4975286;28;20519;-93
2022/07/16 01:49:09;;;;;;;4.93;3.88;;;;;;;22.68;43.84;93635.31;4958601;28;20038;-94
2022/07/16 01:51:34;;;;;;;4.75;3.50;;;;;;;22.70;43.97;93640.28;4959641;28;20337;-93
2022/07/16 01:53:59;;;;;;;6.10;4.20;;;;;;;22.68;43.98;93643.56;4975297;28;20034;-92
2022/07/16 01:56:25;;;;;;;5.18;4.07;;;;;;;22.70;43.91;93643.78;4958961;28;20037;-94
2022/07/16 01:58:50;;;;;;;4.72;3.75;;;;;;;22.69;44.14;93638.78;4991413;28;20042;-93
2022/07/16 02:01:16;;;;;;;5.45;3.80;;;;;;;22.68;44.15;93643.56;4974243;28;20048;-93
2022/07/16 02:03:41;;;;;;;5.68;3.65;;;;;;;22.68;44.00;93637.31;4959778;28;20034;-92
2022/07/16 02:06:06;;;;;;;5.35;4.18;;;;;;;22.68;44.10;93632.53;4974780;28;20049;-93
2022/07/16 02:08:32;;;;;;;7.03;4.70;;;;;;;22.68;44.06;93631.81;4959314;28;20042;-94
2022/07/16 02:10:57;;;;;;;7.18;4.38;;;;;;;22.67;44.15;93625.56;4991179;28;20026;-94
2022/07/16 02:13:23;;;;;;;4.65;3.80;;;;;;;22.66;43.93;93628.84;4959586;28;20048;-93
2022/07/16 02:15:48;;;;;;;5.57;3.95;;;;;;;22.67;44.02;93617.28;4979465;28;20026;-92
2022/07/16 02:18:14;;;;;;;4.53;3.63;;;;;;;22.67;43.98;93630.31;4984696;28;20099;-96
2022/07/16 02:20:39;;;;;;;5.85;4.43;;;;;;;22.67;44.19;93633.06;4978681;28;20030;-94
2022/07/16 02:23:05;;;;;;;4.90;3.90;;;;;;;22.66;43.99;93626.81;4995063;28;20030;-93
2022/07/16 02:25:30;;;;;;;5.28;3.97;;;;;;;22.66;44.19;93634.34;4979057;28;20045;-94
2022/07/16 02:28:16;;;;;;;4.35;3.50;;;;;;;22.64;44.22;93618.34;4979222;28;20037;-94
2022/07/16 02:30:43;;;;;;;7.05;4.50;;;;;;;22.65;44.07;93630.13;4996952;28;20072;-94
2022/07/16 02:33:09;;;;;;;5.20;3.70;;;;;;;22.65;44.11;93619.84;4978305;28;20555;-94
2022/07/16 02:35:35;;;;;;;4.97;3.55;;;;;;;22.63;44.19;93635.41;4979099;28;20038;-93
2022/07/16 02:38:00;;;;;;;5.07;4.03;;;;;;;22.64;44.19;93631.38;4979213;28;20049;-94
2022/07/16 02:40:26;;;;;;;6.05;4.18;;;;;;;22.65;44.19;93635.63;4977950;28;20042;-93
2022/07/16 02:42:52;;;;;;;5.20;3.90;;;;;;;22.65;43.99;93636.38;4978603;28;20554;-94
2022/07/16 02:45:17;;;;;;;4.60;3.65;;;;;;;22.63;44.15;93629.91;4978048;28;20407;-94
2022/07/16 02:47:42;;;;;;;4.20;3.45;;;;;;;22.65;44.05;93624.59;4978823;28;20085;-93
2022/07/16 02:50:08;;;;;;;4.32;3.45;;;;;;;22.63;43.77;93627.16;5000261;28;20037;-91
2022/07/16 02:52:34;;;;;;;6.28;4.15;;;;;;;22.61;44.16;93627.69;4998037;28;20038;-95
2022/07/16 02:54:59;;;;;;;3.30;3.00;;;;;;;22.61;43.96;93635.94;4997954;28;20164;-93
2022/07/16 02:57:25;;;;;;;4.13;3.53;;;;;;;22.63;43.90;93629.91;4997567;28;20484;-93
2022/07/16 02:59:50;;;;;;;5.18;3.67;;;;;;;22.63;44.14;93633.41;5014248;28;20529;-94
2022/07/16 03:02:16;;;;;;;4.20;3.40;;;;;;;22.63;44.06;93629.91;4997349;28;20037;-94
2022/07/16 03:04:41;;;;;;;5.68;3.40;;;;;;;22.61;44.03;93641.47;4997564;28;20111;-92
2022/07/16 03:07:07;;;;;;;5.90;3.92;;;;;;;22.61;43.56;93638.69;4997550;28;20170;-93
2022/07/16 03:09:32;;;;;;;4.57;3.55;;;;;;;22.60;43.94;93642.00;4997949;28;20040;-94
2022/07/16 03:11:58;;;;;;;3.55;3.25;;;;;;;22.60;43.80;93647.50;4997323;28;20026;-94
2022/07/16 03:14:23;;;;;;;3.58;3.20;;;;;;;22.61;43.83;93638.69;5013321;28;20045;-93
2022/07/16 03:16:49;;;;;;;3.50;2.67;;;;;;;22.61;43.84;93640.72;5013401;28;20574;-93
2022/07/16 03:19:14;;;;;;;5.43;3.67;;;;;;;22.60;44.01;93637.22;4994639;28;20045;-94
2022/07/16 03:21:39;;;;;;;3.75;2.88;;;;;;;22.58;44.03;93646.00;4996582;28;20049;-93
2022/07/16 03:24:05;;;;;;;5.80;3.58;;;;;;;22.58;43.97;93639.75;4993840;28;20061;-91
2022/07/16 03:26:31;;;;;;;4.15;3.35;;;;;;;22.60;44.10;93637.22;4977242;28;20484;-95
2022/07/16 03:28:56;;;;;;;4.20;3.10;;;;;;;22.60;44.00;93642.00;4977554;28;20080;-93
2022/07/16 03:31:21;;;;;;;3.78;3.35;;;;;;;22.59;43.91;93644.00;4976837;28;20038;-92
2022/07/16 03:33:47;;;;;;;4.43;3.40;;;;;;;22.60;44.28;93642.72;4977628;28;20080;-94
2022/07/16 03:36:12;;;;;;;3.65;3.03;;;;;;;22.60;43.96;93642.00;4976038;28;20042;-93
2022/07/16 03:41:22;;;;;;;5.40;3.22;;;;;;;22.58;44.02;93653.53;4994368;28;20122;-94
2022/07/16 03:43:47;;;;;;;4.88;3.40;;;;;;;22.58;43.99;93646.00;4977621;28;20049;-94
2022/07/16 03:46:13;;;;;;;3.33;3.03;;;;;;;22.57;44.15;93649.31;4963932;28;20420;-93
2022/07/16 03:48:40;;;;;;;4.32;3.28;;;;;;;22.57;43.93;93652.06;4994201;28;20081;-94
2022/07/16 03:51:06;;;;;;;3.78;3.08;;;;;;;22.58;43.92;93653.53;4977021;28;20418;-94
2022/07/16 03:53:34;;;;;;;4.43;2.80;;;;;;;22.59;43.97;93660.53;4976420;28;20049;-95
2022/07/16 03:56:05;;;;;;;3.60;2.90;;;;;;;22.57;44.05;93646.53;4977197;28;20044;-93
2022/07/16 03:58:32;;;;;;;3.88;3.38;;;;;;;22.59;43.85;93657.78;4976853;28;20042;-95
2022/07/16 04:00:57;;;;;;;3.67;2.95;;;;;;;22.64;43.76;93647.91;4960894;28;20037;-93
2022/07/16 04:03:24;;;;;;;3.50;3.05;;;;;;;22.66;43.68;93654.38;4960301;28;20034;-92
2022/07/16 04:05:50;;;;;;;4.22;3.03;;;;;;;22.69;43.90;93661.59;4977550;28;20068;-93
2022/07/16 04:08:15;;;;;;;4.72;3.08;;;;;;;22.69;43.62;93658.09;4976660;28;20034;-94
2022/07/16 04:10:41;;;;;;;3.97;3.10;;;;;;;22.70;43.72;93646.53;4977015;28;20104;-93
2022/07/16 04:13:06;;;;;;;4.47;3.00;;;;;;;22.70;43.48;93656.81;4976339;28;20046;-94
2022/07/16 04:15:32;;;;;;;4.07;3.25;;;;;;;22.73;43.69;93655.75;4976859;28;20516;-93
2022/07/16 04:17:57;;;;;;;3.67;2.70;;;;;;;22.73;43.51;93650.97;4982947;28;20439;-93
2022/07/16 04:20:22;;;;;;;3.90;3.35;;;;;;;22.74;43.66;93655.19;4995272;28;20499;-94
2022/07/16 04:22:48;;;;;;;3.78;3.00;;;;;;;22.74;43.46;93660.72;4995874;28;20557;-93
2022/07/16 04:25:13;;;;;;;3.45;3.03;;;;;;;22.73;43.68;93653.00;4995513;28;20399;-92
2022/07/16 04:27:40;;;;;;;4.35;3.00;;;;;;;22.74;43.39;93657.22;4996050;28;20581;-93
2022/07/16 04:30:07;;;;;;;4.47;3.13;;;;;;;22.74;43.68;93649.69;4980052;28;20041;-93
2022/07/16 04:32:33;;;;;;;4.20;3.05;;;;;;;22.76;43.57;93660.19;4980474;28;20108;-91
2022/07/16 04:34:59;;;;;;;4.30;3.20;;;;;;;22.77;43.70;93656.16;4980969;28;20484;-95
2022/07/16 04:37:25;;;;;;;5.20;3.25;;;;;;;22.75;43.39;93653.19;4979616;28;20041;-93
2022/07/16 04:39:51;;;;;;;31.00;17.23;;;;;;;22.74;43.25;93649.69;4981147;28;20029;-92
2022/07/16 04:42:16;;;;;;;24.35;13.52;;;;;;;22.70;43.47;93659.56;4995940;28;20068;-92
2022/07/16 04:44:42;;;;;;;15.27;7.80;;;;;;;22.68;43.10;93659.38;4978475;28;20095;-90
2022/07/16 04:47:07;;;;;;;7.68;4.55;;;;;;;22.66;43.09;93659.16;4978648;28;20474;-95
2022/07/16 04:49:32;;;;;;;7.22;4.47;;;;;;;22.58;43.51;93662.53;4980142;28;20042;-94
2022/07/16 04:51:58;;;;;;;10.25;4.97;;;;;;;22.57;43.55;93669.31;4980049;28;20546;-95
2022/07/16 04:54:23;;;;;;;7.60;4.65;;;;;;;22.52;43.42;93664.66;4979589;28;20065;-92
2022/07/16 04:56:49;;;;;;;16.48;6.25;;;;;;;22.60;43.04;93662.00;4996194;28;20026;-95
2022/07/16 04:59:14;;;;;;;9.30;4.72;;;;;;;22.54;43.43;93666.88;5011593;28;20034;-93
2022/07/16 05:01:39;;;;;;;14.10;5.80;;;;;;;22.50;43.49;93652.72;4979802;28;20481;-96
2022/07/16 05:04:05;;;;;;;9.80;5.28;;;;;;;22.52;43.40;93670.19;4979549;28;20037;-94
2022/07/16 05:06:30;;;;;;;8.65;4.68;;;;;;;22.53;43.38;93662.66;4989653;28;20034;-94
2022/07/16 05:08:57;;;;;;;11.32;6.45;;;;;;;22.49;43.26;93670.53;4992813;28;20060;-94
2022/07/16 05:11:22;;;;;;;8.27;4.90;;;;;;;22.49;43.33;93671.25;4979889;28;20492;-93
2022/07/16 05:13:52;;;;;;;19.05;7.35;;;;;;;22.48;43.95;93667.03;4980238;28;20091;-92
2022/07/16 05:16:19;;;;;;;11.10;5.88;;;;;;;22.48;43.81;93666.28;4996165;28;20080;-94
2022/07/16 05:18:45;;;;;;;15.43;6.97;;;;;;;22.48;43.50;93675.28;4980129;28;20121;-93
2022/07/16 05:21:11;;;;;;;12.40;6.07;;;;;;;22.49;42.60;93679.53;4979402;28;20052;-95
2022/07/16 05:23:36;;;;;;;14.65;6.32;;;;;;;22.47;42.98;93675.81;4978476;28;20496;-93
2022/07/16 05:26:02;;;;;;;11.18;6.75;;;;;;;22.47;43.02;93682.06;4984665;28;20396;-94
2022/07/16 05:28:27;;;;;;;15.02;6.30;;;;;;;22.47;43.28;93673.81;4978424;28;20079;-92
2022/07/16 05:30:55;;;;;;;17.52;7.00;;;;;;;22.48;42.77;93680.06;4979182;28;20171;-93
2022/07/16 05:33:21;;;;;;;9.88;5.57;;;;;;;22.42;42.83;93676.66;5011813;28;20029;-91
2022/07/16 05:35:46;;;;;;;9.00;5.95;;;;;;;22.43;42.94;93680.91;5008194;28;20041;-92
2022/07/16 05:38:12;;;;;;;29.73;10.15;;;;;;;22.36;42.58;93681.53;5005086;28;20377;-93
2022/07/16 05:40:37;;;;;;;21.92;8.40;;;;;;;22.38;42.35;93685.25;4992561;28;20042;-89
2022/07/16 05:43:03;;;;;;;25.70;9.20;;;;;;;22.42;42.58;93679.41;4990970;28;20045;-92
2022/07/16 05:45:28;;;;;;;24.13;8.32;;;;;;;22.45;42.40;93676.34;4974759;28;20029;-91
2022/07/16 05:47:53;;;;;;;15.60;6.75;;;;;;;22.43;41.79;93683.66;4975756;28;20042;-90
2022/07/16 05:50:19;;;;;;;12.00;6.32;;;;;;;22.35;41.83;93682.81;4995220;28;20070;-94
2022/07/16 05:52:44;;;;;;;8.23;5.30;;;;;;;22.40;41.35;93677.19;4997363;28;20034;-91
2022/07/16 05:55:10;;;;;;;13.98;5.60;;;;;;;22.34;41.37;93679.31;4997321;28;20065;-91
2022/07/16 05:57:35;;;;;;;12.52;6.15;;;;;;;22.35;41.06;93686.31;5012044;28;20335;-93
2022/07/16 06:00:03;;;;;;;11.93;5.03;;;;;;;22.38;40.64;93682.50;5015424;28;20041;-90
2022/07/16 06:02:29;;;;;;;14.40;5.68;;;;;;;22.29;40.82;93688.44;4998738;28;20500;-93
2022/07/16 06:04:54;;;;;;;6.03;3.90;;;;;;;22.17;40.75;93689.91;4995923;28;20034;-92
2022/07/16 06:07:19;;;;;;;8.30;4.53;;;;;;;22.25;40.66;93692.78;4997175;28;20037;-93
2022/07/16 06:09:45;;;;;;;10.45;6.78;;;;;;;22.24;40.74;93692.03;5001167;28;20030;-93
2022/07/16 06:12:10;;;;;;;106.78;54.25;;;;;;;22.23;40.66;93693.31;4984942;28;20033;-93
2022/07/16 06:14:36;;;;;;;18.75;8.38;;;;;;;22.12;40.73;93693.50;4979723;28;20042;-92
2022/07/16 06:17:01;;;;;;;12.43;8.52;;;;;;;22.19;41.14;93693.63;4995669;28;20034;-94
2022/07/16 06:19:26;;;;;;;12.70;8.02;;;;;;;22.16;40.91;93697.41;5018165;28;20057;-94
2022/07/16 06:21:52;;;;;;;10.38;6.30;;;;;;;22.15;40.88;93706.22;4996313;28;20049;-94
2022/07/16 06:24:17;;;;;;;9.32;5.72;;;;;;;22.21;40.88;93698.59;4994424;28;20030;-96
2022/07/16 06:26:47;;;;;;;13.52;7.47;;;;;;;22.21;40.79;93698.59;4995495;28;20049;-94
2022/07/16 06:29:14;;;;;;;16.15;8.07;;;;;;;22.19;40.81;93710.13;4995853;28;20045;-95
2022/07/16 06:31:40;;;;;;;13.32;6.55;;;;;;;22.11;40.99;93706.53;4995636;28;20045;-94
2022/07/16 06:34:05;;;;;;;11.00;5.50;;;;;;;22.14;41.01;93708.22;4995648;28;20030;-93
2022/07/16 06:36:31;;;;;;;6.15;4.78;;;;;;;22.20;40.66;93710.88;4997409;28;20045;-93
2022/07/16 06:38:56;;;;;;;6.97;4.88;;;;;;;22.11;41.30;93714.78;4982294;28;20045;-93
2022/07/16 06:41:21;;;;;;;7.75;4.20;;;;;;;22.09;41.03;93703.53;4982732;28;20274;-93
2022/07/16 06:43:47;;;;;;;7.97;3.88;;;;;;;22.01;41.35;93713.72;5015366;28;20510;-93
2022/07/16 06:46:12;;;;;;;6.70;3.20;;;;;;;22.05;40.84;93718.91;4987550;28;20522;-95
2022/07/16 06:48:38;;;;;;;5.43;3.78;;;;;;;22.15;41.01;93722.72;4982377;28;20470;-95
2022/07/16 06:51:03;;;;;;;4.45;3.33;;;;;;;22.00;41.32;93714.22;4983427;28;20038;-95
2022/07/16 06:53:29;;;;;;;5.45;3.50;;;;;;;21.98;41.20;93717.50;4987870;28;20050;-93
2022/07/16 06:55:54;;;;;;;4.72;2.97;;;;;;;22.04;41.24;93720.94;4995398;28;20044;-95
2022/07/16 06:58:19;;;;;;;8.55;3.72;;;;;;;22.03;41.24;93732.47;4995108;28;20034;-95
2022/07/16 07:00:45;;;;;;;8.43;4.28;;;;;;;21.99;41.22;93740.25;4973217;28;20046;-92
2022/07/16 07:03:11;;;;;;;10.35;5.13;;;;;;;22.15;41.19;93728.25;4941983;28;20030;-94
2022/07/16 07:05:38;;;;;;;8.18;4.57;;;;;;;22.06;41.29;93734.91;4942192;28;20122;-91
2022/07/16 07:08:04;;;;;;;7.78;4.28;;;;;;;22.11;41.53;93728.53;4945185;28;20034;-94
2022/07/16 07:10:30;;;;;;;7.15;5.03;;;;;;;22.12;41.55;93737.53;4960289;28;20121;-94
2022/07/16 07:12:55;;;;;;;37.08;8.57;;;;;;;22.14;41.62;93726.75;4976378;28;20034;-91
2022/07/16 07:15:21;;;;;;;6.80;4.00;;;;;;;22.12;41.51;93745.81;4975774;28;20148;-94
2022/07/16 07:17:46;;;;;;;7.82;3.67;;;;;;;22.07;42.04;93739.16;4976755;28;20099;-93
2022/07/16 07:20:12;;;;;;;5.93;3.72;;;;;;;21.99;42.52;93737.50;4975875;28;20045;-93
2022/07/16 07:22:37;;;;;;;5.55;3.45;;;;;;;22.00;42.44;93744.50;4960588;28;20045;-92
2022/07/16 07:25:03;;;;;;;10.48;3.50;;;;;;;22.09;42.49;93735.84;4976298;28;20512;-94
2022/07/16 07:27:29;;;;;;;7.53;3.17;;;;;;;22.11;42.08;93753.31;4975955;28;20581;-93
2022/07/16 07:29:54;;;;;;;4.63;3.05;;;;;;;21.98;42.20;93744.28;4979348;28;20030;-93
2022/07/16 07:32:20;;;;;;;6.20;3.30;;;;;;;21.99;42.09;93743.75;4986067;28;20049;-94
2022/07/16 07:34:45;;;;;;;5.55;3.60;;;;;;;22.08;42.35;93748.91;4999107;28;20033;-94
2022/07/16 07:37:11;;;;;;;4.82;3.20;;;;;;;21.97;42.25;93742.78;4980413;28;20036;-94
2022/07/16 07:39:36;;;;;;;6.63;3.10;;;;;;;21.93;42.38;93740.34;4981057;28;20104;-93
2022/07/16 07:42:02;;;;;;;2.92;2.65;;;;;;;21.98;42.33;93744.28;4977126;28;20298;-92
2022/07/16 07:44:27;;;;;;;3.75;2.78;;;;;;;21.92;42.79;93743.63;4960380;28;20034;-93
2022/07/16 07:46:52;;;;;;;4.90;2.95;;;;;;;21.93;42.49;93742.34;4960971;28;20044;-93
2022/07/16 07:49:18;;;;;;;3.95;2.60;;;;;;;21.94;42.60;93736.31;4976777;28;20045;-92
2022/07/16 07:51:43;;;;;;;8.23;2.95;;;;;;;21.83;42.43;93734.53;4993355;28;20044;-95
2022/07/16 07:54:09;;;;;;;6.82;2.95;;;;;;;21.97;42.41;93735.28;4960250;28;20022;-93
2022/07/16 07:56:35;;;;;;;3.75;2.70;;;;;;;21.92;42.62;93727.84;4976034;28;20044;-93
2022/07/16 07:59:00;;;;;;;6.95;2.85;;;;;;;21.73;42.41;93738.19;4992936;28;20125;-93
2022/07/16 08:01:26;;;;;;;6.20;2.53;;;;;;;21.81;42.14;93737.06;4975836;28;20053;-92
2022/07/16 08:03:51;;;;;;;5.35;2.92;;;;;;;21.75;42.35;93739.16;4976580;28;20030;-92
2022/07/16 08:06:16;;;;;;;5.38;2.90;;;;;;;21.80;42.21;93735.56;4959755;28;20057;-94
2022/07/16 08:08:44;;;;;;;4.85;2.53;;;;;;;21.80;42.31;93743.81;4992198;28;20045;-91
2022/07/16 08:11:11;;;;;;;6.65;3.22;;;;;;;21.83;42.61;93744.78;5030054;28;20102;-93
2022/07/16 08:13:37;;;;;;;9.30;6.22;;;;;;;21.90;42.39;93744.88;4982222;28;20037;-91
2022/07/16 08:16:03;;;;;;;9.10;5.85;;;;;;;21.91;42.51;93742.88;5008533;28;20530;-94
2022/07/16 08:18:30;;;;;;;9.65;5.20;;;;;;;21.78;42.76;93740.09;4984580;28;20051;-94
2022/07/16 08:20:55;;;;;;;14.77;5.30;;;;;;;21.86;42.78;93741.00;5034119;28;20044;-91
2022/07/16 08:26:07;;;;;;;8.65;4.78;;;;;;;21.92;43.20;93741.63;4964007;28;20023;-93
2022/07/16 08:28:44;;;;;;;4.35;3.42;;;;;;;21.77;43.50;93738.63;4942386;28;20083;-91
2022/07/16 08:31:11;;;;;;;10.32;3.95;;;;;;;21.66;43.51;93744.28;4973828;28;20031;-92
2022/07/16 08:33:37;;;;;;;7.95;3.88;;;;;;;21.78;43.69;93748.34;4972309;28;20035;-93
2022/07/16 08:36:11;;;;;;;7.30;3.42;;;;;;;21.76;43.97;93753.66;4935001;29;20136;-94
2022/07/16 08:38:39;;;;;;;5.63;3.10;;;;;;;21.70;44.31;93745.47;4917497;29;20124;-92
2022/07/16 08:41:06;;;;;;;5.95;2.90;;;;;;;21.74;44.09;93754.16;4934545;29;20039;-92
2022/07/16 08:43:32;;;;;;;6.28;2.72;;;;;;;21.48;44.11;93749.31;4932233;29;20047;-93
2022/07/16 08:46:02;;;;;;;5.00;3.13;;;;;;;21.51;43.59;93745.50;4919793;29;20075;-92
2022/07/16 08:48:27;;;;;;;3.20;2.78;;;;;;;21.54;42.19;93741.72;4912024;29;20044;-94
2022/07/16 08:50:56;;;;;;;4.57;2.85;;;;;;;21.50;41.89;93757.78;4896296;29;20054;-94
2022/07/16 08:53:23;;;;;;;4.93;2.78;;;;;;;21.39;40.97;93759.97;4895806;29;20040;-93
2022/07/16 08:55:51;;;;;;;5.40;2.75;;;;;;;21.34;40.46;93750.53;4910674;29;20507;-92
2022/07/16 08:58:16;;;;;;;4.45;2.40;;;;;;;21.43;41.28;93754.91;4911690;29;20063;-94
2022/07/16 09:00:43;;;;;;;3.95;2.63;;;;;;;21.43;40.79;93757.66;4896260;29;20068;-93
2022/07/16 09:03:14;;;;;;;4.03;2.53;;;;;;;21.45;40.75;93761.34;4943300;29;20039;-95
2022/07/16 09:05:40;;;;;;;5.13;2.20;;;;;;;21.43;41.11;93757.66;4944913;29;20474;-96
2022/07/16 09:08:06;;;;;;;3.65;2.25;;;;;;;21.51;40.37;93762.03;4968580;28;20042;-93
2022/07/16 09:10:35;;;;;;;6.38;2.72;;;;;;;21.53;41.04;93758.75;4954879;28;20047;-93
2022/07/16 09:13:01;;;;;;;5.15;2.70;;;;;;;21.43;40.69;93765.91;4953316;28;20109;-95
2022/07/16 09:15:38;;;;;;;8.35;2.95;;;;;;;21.44;40.37;93761.88;4967078;28;20118;-95
2022/07/16 09:18:24;;;;;;;4.60;2.58;;;;;;;21.40;40.38;93751.19;4995958;28;20101;-93
2022/07/16 09:20:55;;;;;;;4.60;2.50;;;;;;;21.41;40.57;93757.44;5023617;28;20041;-94
2022/07/16 09:23:28;;;;;;;3.72;2.60;;;;;;;21.37;40.48;93752.22;5004790;28;20038;-94
2022/07/16 09:25:57;;;;;;;3.20;2.40;;;;;;;21.41;40.92;93751.94;5022409;28;20034;-96
2022/07/16 09:28:25;;;;;;;3.88;2.78;;;;;;;21.38;40.92;93752.97;4975794;28;20041;-95
2022/07/16 09:30:51;;;;;;;5.68;2.92;;;;;;;21.45;40.58;93746.84;4997154;28;20129;-95
2022/07/16 09:33:22;;;;;;;5.10;2.58;;;;;;;21.53;40.32;93748.50;5009568;28;20036;-94
2022/07/16 09:35:48;;;;;;;5.35;2.58;;;;;;;21.50;40.19;93751.53;5032448;28;20159;-94
2022/07/16 09:38:15;;;;;;;3.60;2.90;;;;;;;21.36;40.65;93756.25;5030996;28;20654;-92
2022/07/16 09:40:45;;;;;;;5.35;3.10;;;;;;;21.34;40.72;93752.53;5015004;28;20423;-94
2022/07/16 09:43:13;;;;;;;27.65;20.15;;;;;;;21.34;40.11;93755.28;5031871;28;20037;-92
2022/07/16 09:45:41;;;;;;;16.38;10.18;;;;;;;21.25;39.73;93755.66;5048204;28;20518;-94
2022/07/16 09:48:26;;;;;;;28.15;9.35;;;;;;;21.19;39.77;93759.22;5032256;28;20077;-92
2022/07/16 09:50:52;;;;;;;39.63;9.38;;;;;;;21.29;39.74;93756.84;5008135;28;20053;-93
2022/07/16 09:53:20;;;;;;;15.07;5.70;;;;;;;21.25;39.57;93763.91;4957836;28;20426;-94
2022/07/16 09:56:03;;;;;;;90.50;14.30;;;;;;;21.23;39.95;93758.19;4974927;28;20089;-95
2022/07/16 09:58:29;;;;;;;41.72;7.65;;;;;;;21.13;39.58;93758.53;4989187;28;20136;-93
2022/07/16 10:00:55;;;;;;;22.02;5.22;;;;;;;21.14;39.17;93760.03;4957879;28;20041;-93
2022/07/16 10:03:20;;;;;;;17.90;3.88;;;;;;;21.13;39.54;93755.78;4957413;28;20073;-94
2022/07/16 10:05:46;;;;;;;20.38;4.85;;;;;;;21.10;39.82;93756.81;4973606;28;20034;-93
2022/07/16 10:08:12;;;;;;;11.48;3.50;;;;;;;21.12;39.88;93759.06;4972544;28;20035;-93
2022/07/16 10:10:38;;;;;;;3.25;2.58;;;;;;;21.19;39.97;93755.72;4958171;28;20128;-93
2022/07/16 10:13:03;;;;;;;3.70;2.47;;;;;;;21.11;40.10;93763.06;4973273;28;20384;-93
2022/07/16 10:15:29;;;;;;;6.10;2.70;;;;;;;21.13;39.75;93757.78;4973261;28;20061;-92
2022/07/16 10:17:54;;;;;;;6.32;3.17;;;;;;;21.08;39.95;93767.59;4973331;28;20038;-93
2022/07/16 10:20:20;;;;;;;4.93;2.92;;;;;;;21.14;40.19;93765.53;4955904;28;20292;-93
2022/07/16 10:22:46;;;;;;;2.58;2.30;;;;;;;21.17;39.93;93758.25;4982163;28;20168;-91
2022/07/16 10:25:24;;;;;;;3.72;2.42;;;;;;;21.18;39.65;93765.22;4993640;28;20056;-93
2022/07/16 10:27:50;;;;;;;4.20;3.28;;;;;;;21.16;39.80;93754.75;5026465;28;20037;-93
2022/07/16 10:30:24;;;;;;;3.80;2.42;;;;;;;21.24;40.08;93745.91;4993526;28;20038;-93
2022/07/16 10:32:59;;;;;;;5.47;2.67;;;;;;;21.22;39.84;93760.19;4994306;28;20025;-93
2022/07/16 10:35:45;;;;;;;4.35;2.85;;;;;;;21.31;39.85;93773.56;5028190;28;20045;-94
2022/07/16 10:38:11;;;;;;;7.72;3.00;;;;;;;21.34;39.42;93755.28;4997788;28;20152;-94
2022/07/16 10:40:38;;;;;;;2.40;2.20;;;;;;;21.22;39.88;93762.94;5013616;28;20033;-93
2022/07/16 10:43:10;;;;;;;5.53;2.88;;;;;;;21.30;39.55;93768.59;4997557;28;20048;-94
2022/07/16 10:45:57;;;;;;;5.50;2.53;;;;;;;21.33;39.58;93754.53;5014101;28;20037;-92
2022/07/16 10:48:30;;;;;;;3.03;2.03;;;;;;;21.36;39.40;93759.00;5029289;28;20534;-94
2022/07/16 10:51:18;;;;;;;4.90;2.38;;;;;;;21.31;39.64;93753.56;4997299;28;20053;-93
2022/07/16 10:53:56;;;;;;;4.20;2.60;;;;;;;21.27;39.43;93750.38;4998134;28;20055;-94
2022/07/16 10:56:34;;;;;;;4.35;2.53;;;;;;;21.30;39.58;93741.09;5012513;28;20064;-91
2022/07/16 10:59:02;;;;;;;3.65;2.53;;;;;;;21.28;39.69;93755.34;5000739;28;20029;-94
2022/07/16 11:01:28;;;;;;;3.28;2.60;;;;;;;21.37;39.42;93743.97;4980711;28;20052;-93
2022/07/16 11:03:53;;;;;;;4.35;2.55;;;;;;;21.24;39.12;93756.91;4980687;28;20062;-93
2022/07/16 11:06:20;;;;;;;4.53;2.38;;;;;;;21.32;39.04;93755.81;4980115;28;20042;-94
2022/07/16 11:08:46;;;;;;;5.70;2.20;;;;;;;21.33;38.96;93754.53;5006607;28;20038;-93
2022/07/16 11:11:14;;;;;;;3.97;2.28;;;;;;;21.30;38.67;93747.31;4996365;28;20064;-92
2022/07/16 11:13:40;;;;;;;3.78;2.38;;;;;;;21.36;38.42;93747.25;4997529;28;20034;-93
2022/07/16 11:16:09;;;;;;;3.00;1.83;;;;;;;21.33;38.17;93749.03;4980115;28;20057;-93
2022/07/16 11:18:38;;;;;;;3.53;2.42;;;;;;;21.36;38.35;93755.50;4980268;28;20103;-94
2022/07/16 11:21:07;;;;;;;3.92;2.10;;;;;;;21.38;38.16;93745.47;4990773;28;20034;-94
2022/07/16 11:23:48;;;;;;;2.90;1.90;;;;;;;21.44;38.28;93750.88;4980153;28;20030;-94
2022/07/16 11:26:14;;;;;;;4.40;2.35;;;;;;;21.33;37.84;93751.78;5016138;28;20071;-93
2022/07/16 11:28:59;;;;;;;5.38;2.50;;;;;;;21.34;37.75;93750.53;5012803;28;20033;-92
2022/07/16 11:31:29;;;;;;;3.03;2.40;;;;;;;21.44;37.26;93737.84;4996669;28;20400;-94
2022/07/16 11:33:58;;;;;;;2.55;1.80;;;;;;;21.39;36.85;93751.72;5016285;28;20429;-92
2022/07/16 11:36:27;;;;;;;4.15;2.30;;;;;;;21.45;36.95;93742.09;4999651;28;20071;-93
2022/07/16 11:39:13;;;;;;;4.72;2.25;;;;;;;21.44;37.32;93746.13;5015929;28;20056;-94